sensor_id;sensor_type;location;lat;lon;timestamp;P1;durP1;ratioP1;P2;durP2;ratioP2
59062;SDS011;44851;45.648;9.004;2022-12-20T00:01:58;43.07;;;31.40;;
59062;SDS011;44851;45.648;9.004;2022-12-20T00:04:24;43.70;;;32.40;;
59062;SDS011;44851;45.648;9.004;2022-12-20T00:06:49;45.60;;;31.93;;
59062;SDS011;44851;45.648;9.004;2022-12-20T00:09:14;44.80;;;31.37;;
59062;SDS011;44851;45.648;9.004;2022-12-20T00:11:40;43.07;;;30.20;;
59062;SDS011;44851;45.648;9.004;2022-12-20T00:14:06;44.77;;;32.00;;
59062;SDS011;44851;45.648;9.004;2022-12-20T00:16:33;43.53;;;30.90;;
59062;SDS011;44851;45.648;9.004;2022-12-20T00:19:00;46.23;;;30.47;;
59062;SDS011;44851;45.648;9.004;2022-12-20T00:21:27;39.33;;;29.57;;
59062;SDS011;44851;45.648;9.004;2022-12-20T00:23:54;42.37;;;29.33;;
59062;SDS011;44851;45.648;9.004;2022-12-20T00:26:21;40.97;;;29.90;;
59062;SDS011;44851;45.648;9.004;2022-12-20T00:28:48;42.30;;;29.70;;
59062;SDS011;44851;45.648;9.004;2022-12-20T00:31:15;39.07;;;29.70;;
59062;SDS011;44851;45.648;9.004;2022-12-20T00:33:43;40.03;;;29.70;;
59062;SDS011;44851;45.648;9.004;2022-12-20T00:36:10;43.10;;;30.20;;
59062;SDS011;44851;45.648;9.004;2022-12-20T00:38:35;43.20;;;29.37;;
59062;SDS011;44851;45.648;9.004;2022-12-20T00:41:08;40.53;;;29.47;;
59062;SDS011;44851;45.648;9.004;2022-12-20T00:43:36;36.93;;;27.20;;
59062;SDS011;44851;45.648;9.004;2022-12-20T00:46:03;34.57;;;26.70;;
59062;SDS011;44851;45.648;9.004;2022-12-20T00:48:29;35.87;;;27.00;;
59062;SDS011;44851;45.648;9.004;2022-12-20T00:50:58;37.47;;;27.57;;
59062;SDS011;44851;45.648;9.004;2022-12-20T00:53:26;39.63;;;27.03;;
59062;SDS011;44851;45.648;9.004;2022-12-20T00:55:52;38.17;;;26.07;;
59062;SDS011;44851;45.648;9.004;2022-12-20T00:58:17;39.13;;;26.93;;
59062;SDS011;44851;45.648;9.004;2022-12-20T01:00:43;34.17;;;25.63;;
59062;SDS011;44851;45.648;9.004;2022-12-20T01:03:08;37.53;;;26.97;;
59062;SDS011;44851;45.648;9.004;2022-12-20T01:05:33;40.63;;;28.77;;
59062;SDS011;44851;45.648;9.004;2022-12-20T01:07:59;37.17;;;27.80;;
59062;SDS011;44851;45.648;9.004;2022-12-20T01:10:25;37.43;;;27.43;;
59062;SDS011;44851;45.648;9.004;2022-12-20T01:12:51;39.70;;;26.97;;
59062;SDS011;44851;45.648;9.004;2022-12-20T01:15:17;36.87;;;27.97;;
59062;SDS011;44851;45.648;9.004;2022-12-20T01:17:43;42.83;;;27.87;;
59062;SDS011;44851;45.648;9.004;2022-12-20T01:20:08;40.20;;;28.87;;
59062;SDS011;44851;45.648;9.004;2022-12-20T01:22:34;40.13;;;28.57;;
59062;SDS011;44851;45.648;9.004;2022-12-20T01:24:59;41.80;;;28.47;;
59062;SDS011;44851;45.648;9.004;2022-12-20T01:27:25;44.13;;;28.97;;
59062;SDS011;44851;45.648;9.004;2022-12-20T01:29:51;39.40;;;28.83;;
59062;SDS011;44851;45.648;9.004;2022-12-20T01:32:16;37.17;;;28.00;;
59062;SDS011;44851;45.648;9.004;2022-12-20T01:34:41;38.03;;;28.33;;
59062;SDS011;44851;45.648;9.004;2022-12-20T01:37:07;44.87;;;29.10;;
59062;SDS011;44851;45.648;9.004;2022-12-20T01:39:32;42.67;;;30.27;;
59062;SDS011;44851;45.648;9.004;2022-12-20T01:41:58;40.70;;;30.03;;
59062;SDS011;44851;45.648;9.004;2022-12-20T01:46:49;39.57;;;29.90;;
59062;SDS011;44851;45.648;9.004;2022-12-20T01:49:16;42.70;;;30.90;;
59062;SDS011;44851;45.648;9.004;2022-12-20T01:51:47;41.80;;;30.57;;
59062;SDS011;44851;45.648;9.004;2022-12-20T01:56:50;37.20;;;29.03;;
59062;SDS011;44851;45.648;9.004;2022-12-20T01:59:21;37.87;;;28.50;;
59062;SDS011;44851;45.648;9.004;2022-12-20T02:01:48;44.83;;;31.57;;
59062;SDS011;44851;45.648;9.004;2022-12-20T02:04:13;40.77;;;29.93;;
59062;SDS011;44851;45.648;9.004;2022-12-20T02:06:39;38.70;;;28.47;;
59062;SDS011;44851;45.648;9.004;2022-12-20T02:09:04;40.43;;;30.40;;
59062;SDS011;44851;45.648;9.004;2022-12-20T02:14:31;44.47;;;31.70;;
59062;SDS011;44851;45.648;9.004;2022-12-20T02:30:42;32.23;;;26.50;;
59062;SDS011;44851;45.648;9.004;2022-12-20T02:33:11;37.23;;;28.20;;
59062;SDS011;44851;45.648;9.004;2022-12-20T02:35:39;37.20;;;27.40;;
59062;SDS011;44851;45.648;9.004;2022-12-20T02:40:49;43.07;;;30.00;;
59062;SDS011;44851;45.648;9.004;2022-12-20T02:43:20;39.23;;;28.37;;
59062;SDS011;44851;45.648;9.004;2022-12-20T02:46:06;40.97;;;29.77;;
59062;SDS011;44851;45.648;9.004;2022-12-20T02:48:32;40.03;;;28.80;;
59062;SDS011;44851;45.648;9.004;2022-12-20T02:51:01;39.57;;;28.40;;
59062;SDS011;44851;45.648;9.004;2022-12-20T02:53:30;40.53;;;29.37;;
59062;SDS011;44851;45.648;9.004;2022-12-20T02:56:13;39.17;;;28.80;;
59062;SDS011;44851;45.648;9.004;2022-12-20T03:01:38;43.97;;;30.03;;
59062;SDS011;44851;45.648;9.004;2022-12-20T03:04:09;41.03;;;27.27;;
59062;SDS011;44851;45.648;9.004;2022-12-20T03:06:35;38.07;;;26.03;;
59062;SDS011;44851;45.648;9.004;2022-12-20T03:09:01;34.27;;;26.00;;
59062;SDS011;44851;45.648;9.004;2022-12-20T03:11:27;35.43;;;26.73;;
59062;SDS011;44851;45.648;9.004;2022-12-20T03:13:52;35.97;;;26.70;;
59062;SDS011;44851;45.648;9.004;2022-12-20T03:16:18;35.33;;;26.07;;
59062;SDS011;44851;45.648;9.004;2022-12-20T03:18:43;33.20;;;25.67;;
59062;SDS011;44851;45.648;9.004;2022-12-20T03:21:10;38.47;;;25.17;;
59062;SDS011;44851;45.648;9.004;2022-12-20T03:23:36;35.47;;;25.63;;
59062;SDS011;44851;45.648;9.004;2022-12-20T03:26:01;36.17;;;27.00;;
59062;SDS011;44851;45.648;9.004;2022-12-20T03:28:27;32.73;;;26.53;;
59062;SDS011;44851;45.648;9.004;2022-12-20T03:30:52;35.80;;;26.40;;
59062;SDS011;44851;45.648;9.004;2022-12-20T03:33:17;37.00;;;26.63;;
59062;SDS011;44851;45.648;9.004;2022-12-20T03:35:43;34.47;;;26.17;;
59062;SDS011;44851;45.648;9.004;2022-12-20T03:38:08;36.73;;;26.37;;
59062;SDS011;44851;45.648;9.004;2022-12-20T03:40:34;33.23;;;25.90;;
59062;SDS011;44851;45.648;9.004;2022-12-20T03:42:59;34.93;;;25.77;;
59062;SDS011;44851;45.648;9.004;2022-12-20T03:45:24;35.03;;;25.00;;
59062;SDS011;44851;45.648;9.004;2022-12-20T03:47:50;34.70;;;25.30;;
59062;SDS011;44851;45.648;9.004;2022-12-20T03:50:15;37.23;;;25.77;;
59062;SDS011;44851;45.648;9.004;2022-12-20T03:52:41;36.97;;;24.87;;
59062;SDS011;44851;45.648;9.004;2022-12-20T03:55:06;33.67;;;25.23;;
59062;SDS011;44851;45.648;9.004;2022-12-20T03:57:35;34.00;;;25.37;;
59062;SDS011;44851;45.648;9.004;2022-12-20T04:00:00;36.03;;;24.90;;
59062;SDS011;44851;45.648;9.004;2022-12-20T04:02:26;31.10;;;23.67;;
59062;SDS011;44851;45.648;9.004;2022-12-20T04:04:51;32.67;;;25.03;;
59062;SDS011;44851;45.648;9.004;2022-12-20T04:07:16;37.57;;;26.07;;
59062;SDS011;44851;45.648;9.004;2022-12-20T04:09:42;32.77;;;25.53;;
59062;SDS011;44851;45.648;9.004;2022-12-20T04:12:07;36.97;;;25.00;;
59062;SDS011;44851;45.648;9.004;2022-12-20T04:14:33;37.23;;;25.23;;
59062;SDS011;44851;45.648;9.004;2022-12-20T04:16:59;39.00;;;26.53;;
59062;SDS011;44851;45.648;9.004;2022-12-20T04:19:25;35.00;;;26.80;;
59062;SDS011;44851;45.648;9.004;2022-12-20T04:21:50;37.07;;;26.13;;
59062;SDS011;44851;45.648;9.004;2022-12-20T04:24:16;44.43;;;29.10;;
59062;SDS011;44851;45.648;9.004;2022-12-20T04:26:41;45.10;;;28.60;;
59062;SDS011;44851;45.648;9.004;2022-12-20T04:29:07;45.27;;;29.23;;
59062;SDS011;44851;45.648;9.004;2022-12-20T04:31:32;49.50;;;29.13;;
59062;SDS011;44851;45.648;9.004;2022-12-20T04:33:58;46.50;;;30.70;;
59062;SDS011;44851;45.648;9.004;2022-12-20T04:36:23;49.27;;;31.77;;
59062;SDS011;44851;45.648;9.004;2022-12-20T04:38:49;52.13;;;32.27;;
59062;SDS011;44851;45.648;9.004;2022-12-20T04:41:14;44.10;;;28.80;;
59062;SDS011;44851;45.648;9.004;2022-12-20T04:43:55;45.73;;;29.43;;
59062;SDS011;44851;45.648;9.004;2022-12-20T04:46:22;46.43;;;29.90;;
59062;SDS011;44851;45.648;9.004;2022-12-20T04:48:48;48.43;;;30.43;;
59062;SDS011;44851;45.648;9.004;2022-12-20T04:51:14;45.17;;;29.47;;
59062;SDS011;44851;45.648;9.004;2022-12-20T04:53:40;45.37;;;29.77;;
59062;SDS011;44851;45.648;9.004;2022-12-20T04:58:48;45.20;;;29.27;;
59062;SDS011;44851;45.648;9.004;2022-12-20T05:01:15;47.07;;;28.93;;
59062;SDS011;44851;45.648;9.004;2022-12-20T05:03:41;44.90;;;28.17;;
59062;SDS011;44851;45.648;9.004;2022-12-20T05:06:07;42.10;;;27.67;;
59062;SDS011;44851;45.648;9.004;2022-12-20T05:08:34;44.13;;;29.17;;
59062;SDS011;44851;45.648;9.004;2022-12-20T05:11:00;44.77;;;29.30;;
59062;SDS011;44851;45.648;9.004;2022-12-20T05:13:26;42.83;;;28.90;;
59062;SDS011;44851;45.648;9.004;2022-12-20T05:15:51;47.47;;;30.73;;
59062;SDS011;44851;45.648;9.004;2022-12-20T05:18:18;39.90;;;28.63;;
59062;SDS011;44851;45.648;9.004;2022-12-20T05:20:44;46.20;;;29.80;;
59062;SDS011;44851;45.648;9.004;2022-12-20T05:23:09;45.93;;;29.67;;
59062;SDS011;44851;45.648;9.004;2022-12-20T05:25:53;42.67;;;29.47;;
59062;SDS011;44851;45.648;9.004;2022-12-20T05:28:38;46.50;;;29.33;;
59062;SDS011;44851;45.648;9.004;2022-12-20T05:31:03;44.70;;;29.93;;
59062;SDS011;44851;45.648;9.004;2022-12-20T05:33:29;43.17;;;28.73;;
59062;SDS011;44851;45.648;9.004;2022-12-20T05:35:54;41.77;;;29.07;;
59062;SDS011;44851;45.648;9.004;2022-12-20T05:38:20;42.90;;;28.37;;
59062;SDS011;44851;45.648;9.004;2022-12-20T05:40:46;45.03;;;29.83;;
59062;SDS011;44851;45.648;9.004;2022-12-20T05:43:12;42.30;;;28.43;;
59062;SDS011;44851;45.648;9.004;2022-12-20T05:45:39;43.23;;;29.00;;
59062;SDS011;44851;45.648;9.004;2022-12-20T05:48:04;44.20;;;28.63;;
59062;SDS011;44851;45.648;9.004;2022-12-20T05:50:30;47.20;;;29.17;;
59062;SDS011;44851;45.648;9.004;2022-12-20T05:52:56;42.30;;;29.70;;
59062;SDS011;44851;45.648;9.004;2022-12-20T05:55:21;41.17;;;28.70;;
59062;SDS011;44851;45.648;9.004;2022-12-20T05:57:47;43.90;;;29.47;;
59062;SDS011;44851;45.648;9.004;2022-12-20T06:00:12;44.33;;;29.90;;
59062;SDS011;44851;45.648;9.004;2022-12-20T06:02:39;45.00;;;29.60;;
59062;SDS011;44851;45.648;9.004;2022-12-20T06:05:05;40.77;;;28.73;;
59062;SDS011;44851;45.648;9.004;2022-12-20T06:07:31;44.47;;;29.37;;
59062;SDS011;44851;45.648;9.004;2022-12-20T06:09:56;43.57;;;29.73;;
59062;SDS011;44851;45.648;9.004;2022-12-20T06:12:23;41.80;;;29.50;;
59062;SDS011;44851;45.648;9.004;2022-12-20T06:14:48;45.17;;;29.83;;
59062;SDS011;44851;45.648;9.004;2022-12-20T06:17:15;41.00;;;29.13;;
59062;SDS011;44851;45.648;9.004;2022-12-20T06:19:42;45.23;;;30.57;;
59062;SDS011;44851;45.648;9.004;2022-12-20T06:22:08;44.40;;;28.70;;
59062;SDS011;44851;45.648;9.004;2022-12-20T06:24:34;48.37;;;30.07;;
59062;SDS011;44851;45.648;9.004;2022-12-20T06:26:59;40.33;;;28.43;;
59062;SDS011;44851;45.648;9.004;2022-12-20T06:29:25;43.20;;;28.97;;
59062;SDS011;44851;45.648;9.004;2022-12-20T06:31:51;41.73;;;28.73;;
59062;SDS011;44851;45.648;9.004;2022-12-20T06:34:16;48.67;;;30.17;;
59062;SDS011;44851;45.648;9.004;2022-12-20T06:36:42;44.13;;;28.80;;
59062;SDS011;44851;45.648;9.004;2022-12-20T06:39:08;43.57;;;29.50;;
59062;SDS011;44851;45.648;9.004;2022-12-20T06:41:34;40.73;;;26.87;;
59062;SDS011;44851;45.648;9.004;2022-12-20T06:44:00;44.00;;;28.33;;
59062;SDS011;44851;45.648;9.004;2022-12-20T06:46:26;48.93;;;31.23;;
59062;SDS011;44851;45.648;9.004;2022-12-20T06:48:51;43.50;;;29.47;;
59062;SDS011;44851;45.648;9.004;2022-12-20T06:51:17;43.17;;;30.47;;
59062;SDS011;44851;45.648;9.004;2022-12-20T06:53:43;41.27;;;28.37;;
59062;SDS011;44851;45.648;9.004;2022-12-20T06:56:08;43.13;;;28.57;;
59062;SDS011;44851;45.648;9.004;2022-12-20T06:58:34;39.47;;;28.60;;
59062;SDS011;44851;45.648;9.004;2022-12-20T07:01:00;45.37;;;29.33;;
59062;SDS011;44851;45.648;9.004;2022-12-20T07:03:25;43.10;;;29.67;;
59062;SDS011;44851;45.648;9.004;2022-12-20T07:05:51;43.80;;;31.43;;
59062;SDS011;44851;45.648;9.004;2022-12-20T07:08:18;45.00;;;31.33;;
59062;SDS011;44851;45.648;9.004;2022-12-20T07:10:44;44.80;;;31.00;;
59062;SDS011;44851;45.648;9.004;2022-12-20T07:13:09;43.17;;;30.27;;
59062;SDS011;44851;45.648;9.004;2022-12-20T07:15:35;44.30;;;28.43;;
59062;SDS011;44851;45.648;9.004;2022-12-20T07:18:00;44.70;;;30.87;;
59062;SDS011;44851;45.648;9.004;2022-12-20T07:20:26;49.97;;;32.97;;
59062;SDS011;44851;45.648;9.004;2022-12-20T07:22:51;45.93;;;31.23;;
59062;SDS011;44851;45.648;9.004;2022-12-20T07:25:17;42.43;;;29.53;;
59062;SDS011;44851;45.648;9.004;2022-12-20T07:27:45;43.13;;;29.87;;
59062;SDS011;44851;45.648;9.004;2022-12-20T07:30:11;44.87;;;30.67;;
59062;SDS011;44851;45.648;9.004;2022-12-20T07:32:37;41.47;;;29.73;;
59062;SDS011;44851;45.648;9.004;2022-12-20T07:35:02;44.50;;;29.37;;
59062;SDS011;44851;45.648;9.004;2022-12-20T07:37:28;43.43;;;29.17;;
59062;SDS011;44851;45.648;9.004;2022-12-20T07:39:53;42.80;;;29.57;;
59062;SDS011;44851;45.648;9.004;2022-12-20T07:42:19;43.47;;;30.30;;
59062;SDS011;44851;45.648;9.004;2022-12-20T07:44:44;42.33;;;29.13;;
59062;SDS011;44851;45.648;9.004;2022-12-20T07:47:11;43.40;;;29.53;;
59062;SDS011;44851;45.648;9.004;2022-12-20T07:49:37;39.27;;;28.93;;
59062;SDS011;44851;45.648;9.004;2022-12-20T07:52:02;40.23;;;28.17;;
59062;SDS011;44851;45.648;9.004;2022-12-20T07:54:30;40.87;;;28.63;;
59062;SDS011;44851;45.648;9.004;2022-12-20T07:57:00;37.97;;;29.83;;
59062;SDS011;44851;45.648;9.004;2022-12-20T07:59:32;43.70;;;30.10;;
59062;SDS011;44851;45.648;9.004;2022-12-20T08:02:03;42.83;;;30.57;;
59062;SDS011;44851;45.648;9.004;2022-12-20T08:04:29;42.53;;;30.93;;
59062;SDS011;44851;45.648;9.004;2022-12-20T08:06:56;41.60;;;29.97;;
59062;SDS011;44851;45.648;9.004;2022-12-20T08:09:24;43.23;;;29.60;;
59062;SDS011;44851;45.648;9.004;2022-12-20T08:11:53;35.97;;;28.03;;
59062;SDS011;44851;45.648;9.004;2022-12-20T08:14:19;41.77;;;29.10;;
59062;SDS011;44851;45.648;9.004;2022-12-20T08:16:45;52.37;;;38.53;;
59062;SDS011;44851;45.648;9.004;2022-12-20T08:19:11;47.63;;;35.00;;
59062;SDS011;44851;45.648;9.004;2022-12-20T08:21:36;41.30;;;30.27;;
59062;SDS011;44851;45.648;9.004;2022-12-20T08:24:02;45.07;;;31.90;;
59062;SDS011;44851;45.648;9.004;2022-12-20T08:26:28;44.03;;;30.83;;
59062;SDS011;44851;45.648;9.004;2022-12-20T08:28:54;44.30;;;31.77;;
59062;SDS011;44851;45.648;9.004;2022-12-20T08:31:20;39.30;;;29.97;;
59062;SDS011;44851;45.648;9.004;2022-12-20T08:33:45;41.20;;;29.97;;
59062;SDS011;44851;45.648;9.004;2022-12-20T08:36:11;41.63;;;29.27;;
59062;SDS011;44851;45.648;9.004;2022-12-20T08:38:37;40.33;;;29.80;;
59062;SDS011;44851;45.648;9.004;2022-12-20T08:41:07;41.70;;;29.77;;
59062;SDS011;44851;45.648;9.004;2022-12-20T08:43:37;41.43;;;28.80;;
59062;SDS011;44851;45.648;9.004;2022-12-20T08:46:03;36.57;;;27.80;;
59062;SDS011;44851;45.648;9.004;2022-12-20T08:48:29;41.27;;;29.30;;
59062;SDS011;44851;45.648;9.004;2022-12-20T08:50:57;45.13;;;30.53;;
59062;SDS011;44851;45.648;9.004;2022-12-20T08:53:30;42.67;;;30.87;;
59062;SDS011;44851;45.648;9.004;2022-12-20T08:56:03;40.10;;;29.30;;
59062;SDS011;44851;45.648;9.004;2022-12-20T08:58:30;41.77;;;29.47;;
59062;SDS011;44851;45.648;9.004;2022-12-20T09:01:00;35.20;;;27.03;;
59062;SDS011;44851;45.648;9.004;2022-12-20T09:03:31;38.90;;;28.57;;
59062;SDS011;44851;45.648;9.004;2022-12-20T09:05:57;36.40;;;26.90;;
59062;SDS011;44851;45.648;9.004;2022-12-20T09:08:23;39.03;;;29.00;;
59062;SDS011;44851;45.648;9.004;2022-12-20T09:10:49;38.90;;;28.77;;
59062;SDS011;44851;45.648;9.004;2022-12-20T09:13:15;41.17;;;28.70;;
59062;SDS011;44851;45.648;9.004;2022-12-20T09:15:40;39.47;;;28.67;;
59062;SDS011;44851;45.648;9.004;2022-12-20T09:18:06;44.40;;;30.33;;
59062;SDS011;44851;45.648;9.004;2022-12-20T09:20:32;40.00;;;28.93;;
59062;SDS011;44851;45.648;9.004;2022-12-20T09:22:58;41.93;;;29.50;;
59062;SDS011;44851;45.648;9.004;2022-12-20T09:25:24;39.90;;;28.20;;
59062;SDS011;44851;45.648;9.004;2022-12-20T09:27:50;38.80;;;28.87;;
59062;SDS011;44851;45.648;9.004;2022-12-20T09:30:16;43.80;;;29.70;;
59062;SDS011;44851;45.648;9.004;2022-12-20T09:32:42;38.27;;;27.93;;
59062;SDS011;44851;45.648;9.004;2022-12-20T09:35:07;40.57;;;28.00;;
59062;SDS011;44851;45.648;9.004;2022-12-20T09:37:33;44.67;;;28.37;;
59062;SDS011;44851;45.648;9.004;2022-12-20T09:39:58;38.33;;;26.40;;
59062;SDS011;44851;45.648;9.004;2022-12-20T09:42:25;38.20;;;26.27;;
59062;SDS011;44851;45.648;9.004;2022-12-20T09:44:54;38.23;;;27.23;;
59062;SDS011;44851;45.648;9.004;2022-12-20T09:47:33;42.70;;;27.37;;
59062;SDS011;44851;45.648;9.004;2022-12-20T09:50:01;37.03;;;26.03;;
59062;SDS011;44851;45.648;9.004;2022-12-20T10:00:22;38.53;;;28.27;;
59062;SDS011;44851;45.648;9.004;2022-12-20T10:02:48;38.30;;;28.90;;
59062;SDS011;44851;45.648;9.004;2022-12-20T10:05:19;36.50;;;27.80;;
59062;SDS011;44851;45.648;9.004;2022-12-20T10:07:54;37.60;;;27.50;;
59062;SDS011;44851;45.648;9.004;2022-12-20T10:10:38;37.63;;;27.20;;
59062;SDS011;44851;45.648;9.004;2022-12-20T10:27:11;37.83;;;27.80;;
59062;SDS011;44851;45.648;9.004;2022-12-20T10:29:41;35.73;;;27.23;;
59062;SDS011;44851;45.648;9.004;2022-12-20T10:32:15;33.80;;;26.63;;
59062;SDS011;44851;45.648;9.004;2022-12-20T10:37:35;36.57;;;28.23;;
59062;SDS011;44851;45.648;9.004;2022-12-20T10:40:00;38.57;;;28.67;;
59062;SDS011;44851;45.648;9.004;2022-12-20T10:42:33;38.17;;;28.70;;
59062;SDS011;44851;45.648;9.004;2022-12-20T10:45:02;29.07;;;23.60;;
59062;SDS011;44851;45.648;9.004;2022-12-20T10:47:37;31.53;;;24.00;;
59062;SDS011;44851;45.648;9.004;2022-12-20T10:52:42;31.10;;;23.67;;
59062;SDS011;44851;45.648;9.004;2022-12-20T10:55:30;28.20;;;23.03;;
59062;SDS011;44851;45.648;9.004;2022-12-20T10:58:15;30.03;;;24.17;;
59062;SDS011;44851;45.648;9.004;2022-12-20T11:00:45;34.07;;;26.37;;
59062;SDS011;44851;45.648;9.004;2022-12-20T11:03:15;34.30;;;25.57;;
59062;SDS011;44851;45.648;9.004;2022-12-20T11:05:55;32.43;;;24.37;;
59062;SDS011;44851;45.648;9.004;2022-12-20T11:08:25;30.40;;;24.40;;
59062;SDS011;44851;45.648;9.004;2022-12-20T11:13:36;36.20;;;26.17;;
59062;SDS011;44851;45.648;9.004;2022-12-20T11:16:02;32.60;;;25.90;;
59062;SDS011;44851;45.648;9.004;2022-12-20T11:21:02;32.47;;;24.60;;
59062;SDS011;44851;45.648;9.004;2022-12-20T11:29:02;31.43;;;23.73;;
59062;SDS011;44851;45.648;9.004;2022-12-20T11:52:57;31.97;;;25.83;;
59062;SDS011;44851;45.648;9.004;2022-12-20T11:55:26;33.70;;;26.37;;
59062;SDS011;44851;45.648;9.004;2022-12-20T11:57:58;38.03;;;25.97;;
59062;SDS011;44851;45.648;9.004;2022-12-20T12:00:33;35.37;;;25.13;;
59062;SDS011;44851;45.648;9.004;2022-12-20T12:03:15;35.07;;;26.13;;
59062;SDS011;44851;45.648;9.004;2022-12-20T12:05:47;36.47;;;27.20;;
59062;SDS011;44851;45.648;9.004;2022-12-20T12:08:38;36.93;;;27.07;;
59062;SDS011;44851;45.648;9.004;2022-12-20T12:13:43;35.27;;;25.90;;
59062;SDS011;44851;45.648;9.004;2022-12-20T12:16:28;35.73;;;25.87;;
59062;SDS011;44851;45.648;9.004;2022-12-20T12:19:04;33.27;;;25.97;;
59062;SDS011;44851;45.648;9.004;2022-12-20T12:21:40;32.97;;;25.50;;
59062;SDS011;44851;45.648;9.004;2022-12-20T12:26:42;35.87;;;27.10;;
59062;SDS011;44851;45.648;9.004;2022-12-20T12:39:48;30.70;;;25.77;;
59062;SDS011;44851;45.648;9.004;2022-12-20T12:50:46;36.93;;;27.13;;
59062;SDS011;44851;45.648;9.004;2022-12-20T13:11:30;33.67;;;25.60;;
59062;SDS011;44851;45.648;9.004;2022-12-20T13:16:41;36.87;;;28.10;;
59062;SDS011;44851;45.648;9.004;2022-12-20T13:19:11;41.00;;;29.57;;
59062;SDS011;44851;45.648;9.004;2022-12-20T13:22:12;37.97;;;28.67;;
59062;SDS011;44851;45.648;9.004;2022-12-20T13:30:23;33.17;;;26.23;;
59062;SDS011;44851;45.648;9.004;2022-12-20T13:40:39;27.90;;;23.60;;
59062;SDS011;44851;45.648;9.004;2022-12-20T13:45:49;31.30;;;24.10;;
59062;SDS011;44851;45.648;9.004;2022-12-20T13:48:41;30.87;;;23.23;;
59062;SDS011;44851;45.648;9.004;2022-12-20T13:51:21;31.70;;;23.23;;
59062;SDS011;44851;45.648;9.004;2022-12-20T13:58:57;30.30;;;22.47;;
59062;SDS011;44851;45.648;9.004;2022-12-20T14:01:27;32.67;;;23.77;;
59062;SDS011;44851;45.648;9.004;2022-12-20T14:03:55;27.40;;;21.50;;
59062;SDS011;44851;45.648;9.004;2022-12-20T14:06:22;29.17;;;22.73;;
59062;SDS011;44851;45.648;9.004;2022-12-20T14:08:50;26.17;;;21.43;;
59062;SDS011;44851;45.648;9.004;2022-12-20T14:11:20;32.20;;;22.07;;
59062;SDS011;44851;45.648;9.004;2022-12-20T14:14:09;29.80;;;22.70;;
59062;SDS011;44851;45.648;9.004;2022-12-20T14:16:37;26.53;;;21.00;;
59062;SDS011;44851;45.648;9.004;2022-12-20T14:19:03;26.43;;;20.13;;
59062;SDS011;44851;45.648;9.004;2022-12-20T14:21:32;26.23;;;20.53;;
59062;SDS011;44851;45.648;9.004;2022-12-20T14:24:00;27.63;;;20.07;;
59062;SDS011;44851;45.648;9.004;2022-12-20T14:26:37;25.27;;;19.77;;
59062;SDS011;44851;45.648;9.004;2022-12-20T14:29:11;29.20;;;20.67;;
59062;SDS011;44851;45.648;9.004;2022-12-20T14:31:42;24.73;;;19.23;;
59062;SDS011;44851;45.648;9.004;2022-12-20T14:36:37;27.23;;;19.53;;
59062;SDS011;44851;45.648;9.004;2022-12-20T14:39:30;23.53;;;20.03;;
59062;SDS011;44851;45.648;9.004;2022-12-20T14:42:02;29.97;;;22.83;;
59062;SDS011;44851;45.648;9.004;2022-12-20T14:44:37;28.07;;;20.30;;
59062;SDS011;44851;45.648;9.004;2022-12-20T14:47:10;23.57;;;18.63;;
59062;SDS011;44851;45.648;9.004;2022-12-20T14:49:47;23.83;;;18.60;;
59062;SDS011;44851;45.648;9.004;2022-12-20T14:52:19;24.23;;;17.40;;
59062;SDS011;44851;45.648;9.004;2022-12-20T15:13:35;23.80;;;18.23;;
59062;SDS011;44851;45.648;9.004;2022-12-20T15:18:37;27.20;;;19.67;;
59062;SDS011;44851;45.648;9.004;2022-12-20T15:21:11;24.80;;;18.43;;
59062;SDS011;44851;45.648;9.004;2022-12-20T15:23:41;23.53;;;17.80;;
59062;SDS011;44851;45.648;9.004;2022-12-20T15:26:14;25.30;;;17.97;;
59062;SDS011;44851;45.648;9.004;2022-12-20T15:28:40;24.17;;;18.93;;
59062;SDS011;44851;45.648;9.004;2022-12-20T15:31:05;24.30;;;18.87;;
59062;SDS011;44851;45.648;9.004;2022-12-20T15:33:34;29.47;;;19.77;;
59062;SDS011;44851;45.648;9.004;2022-12-20T15:36:02;25.03;;;19.57;;
59062;SDS011;44851;45.648;9.004;2022-12-20T15:38:27;25.87;;;19.80;;
59062;SDS011;44851;45.648;9.004;2022-12-20T15:40:55;26.20;;;20.30;;
59062;SDS011;44851;45.648;9.004;2022-12-20T15:43:26;28.03;;;20.40;;
59062;SDS011;44851;45.648;9.004;2022-12-20T15:45:52;28.97;;;21.37;;
59062;SDS011;44851;45.648;9.004;2022-12-20T15:48:19;26.97;;;19.80;;
59062;SDS011;44851;45.648;9.004;2022-12-20T15:50:48;27.43;;;19.63;;
59062;SDS011;44851;45.648;9.004;2022-12-20T15:53:19;29.03;;;21.23;;
59062;SDS011;44851;45.648;9.004;2022-12-20T15:55:50;32.07;;;22.57;;
59062;SDS011;44851;45.648;9.004;2022-12-20T15:58:18;30.97;;;21.57;;
59062;SDS011;44851;45.648;9.004;2022-12-20T16:00:43;29.13;;;21.17;;
59062;SDS011;44851;45.648;9.004;2022-12-20T16:03:19;36.30;;;25.07;;
59062;SDS011;44851;45.648;9.004;2022-12-20T16:05:47;37.30;;;25.63;;
59062;SDS011;44851;45.648;9.004;2022-12-20T16:08:15;38.40;;;27.83;;
59062;SDS011;44851;45.648;9.004;2022-12-20T16:10:42;38.13;;;25.60;;
59062;SDS011;44851;45.648;9.004;2022-12-20T16:13:16;43.93;;;29.67;;
59062;SDS011;44851;45.648;9.004;2022-12-20T16:15:46;42.23;;;29.47;;
59062;SDS011;44851;45.648;9.004;2022-12-20T16:18:11;48.13;;;31.23;;
59062;SDS011;44851;45.648;9.004;2022-12-20T16:20:36;48.13;;;31.27;;
59062;SDS011;44851;45.648;9.004;2022-12-20T16:23:03;44.43;;;29.20;;
59062;SDS011;44851;45.648;9.004;2022-12-20T16:25:32;44.87;;;28.67;;
59062;SDS011;44851;45.648;9.004;2022-12-20T16:27:59;37.90;;;26.73;;
59062;SDS011;44851;45.648;9.004;2022-12-20T16:30:25;32.30;;;24.03;;
59062;SDS011;44851;45.648;9.004;2022-12-20T16:32:51;32.23;;;23.47;;
59062;SDS011;44851;45.648;9.004;2022-12-20T16:35:24;34.77;;;23.23;;
59062;SDS011;44851;45.648;9.004;2022-12-20T16:37:55;35.23;;;24.40;;
59062;SDS011;44851;45.648;9.004;2022-12-20T16:40:22;38.07;;;27.23;;
59062;SDS011;44851;45.648;9.004;2022-12-20T16:42:49;37.60;;;26.80;;
59062;SDS011;44851;45.648;9.004;2022-12-20T16:45:16;38.53;;;25.60;;
59062;SDS011;44851;45.648;9.004;2022-12-20T16:47:45;37.73;;;28.30;;
59062;SDS011;44851;45.648;9.004;2022-12-20T16:50:11;39.00;;;25.73;;
59062;SDS011;44851;45.648;9.004;2022-12-20T16:52:36;40.50;;;28.33;;
59062;SDS011;44851;45.648;9.004;2022-12-20T16:55:02;39.13;;;29.30;;
59062;SDS011;44851;45.648;9.004;2022-12-20T16:57:29;43.93;;;28.10;;
59062;SDS011;44851;45.648;9.004;2022-12-20T16:59:54;43.87;;;31.17;;
59062;SDS011;44851;45.648;9.004;2022-12-20T17:04:53;41.57;;;28.87;;
59062;SDS011;44851;45.648;9.004;2022-12-20T17:07:19;39.83;;;28.30;;
59062;SDS011;44851;45.648;9.004;2022-12-20T17:09:44;43.47;;;30.03;;
59062;SDS011;44851;45.648;9.004;2022-12-20T17:12:17;43.73;;;29.67;;
59062;SDS011;44851;45.648;9.004;2022-12-20T17:14:43;44.07;;;30.03;;
59062;SDS011;44851;45.648;9.004;2022-12-20T17:17:10;39.93;;;29.60;;
59062;SDS011;44851;45.648;9.004;2022-12-20T17:19:36;38.60;;;28.90;;
59062;SDS011;44851;45.648;9.004;2022-12-20T17:22:01;42.57;;;28.83;;
59062;SDS011;44851;45.648;9.004;2022-12-20T17:24:28;37.30;;;28.40;;
59062;SDS011;44851;45.648;9.004;2022-12-20T17:26:53;45.87;;;29.23;;
59062;SDS011;44851;45.648;9.004;2022-12-20T17:29:19;44.33;;;30.83;;